Washington, District of Columbia
Traffic Map
Current Weather Conditions
Washington, District of Columbia
Few Clouds
Few Clouds
Feels Like: 13°
Wind Chill: 13° Ceiling: Unl
Heat Index: 13° Visibility: 10mi
Dew Point: Wind: 13mph
Humidity: 69% Direction: 220° (SW)
Pressure: 29.91in Gusts: 0mph
Raw Report DataKDCA 240752Z 22011KT 10SM FEW120 13/08 A2991 RMK AO2 SLP127 T01330078
Traffic Incident Summary
Active as of:
InformationThere was an issue retrieving the traffic information for this location. Please try a different location or try again shortly.
Track Severe Weather on mobile